KYKM/YKM METAR and TAF weather

Enter ICAO airport designator
Station Type Date Time Source
KYKM METAR 2019/08/26 07:53 UTC NOAA

KYKM 260753Z AUTO 33009KT 10SM CLR 18/04 A3013 RMK AO2 SLP196 T01780039 402890133


Station Type Date Time Source
KYKM Decoded METAR 2019/08/26 07:53 UTC NOAA

Station name not available
Aug 26, 2019 - 03:53 AM EDT / 2019.08.26 0753 UTC
Wind: from the NNW (330 degrees) at 10 MPH (9 KT):0
Visibility: 10 mile(s):0
Sky conditions: clear
Temperature: 64.0 F (17.8 C)
Dew Point: 39.0 F (3.9 C)
Relative Humidity: 39%
Pressure (altimeter): 30.13 in. Hg (1020 hPa)
ob: KYKM 260753Z AUTO 33009KT 10SM CLR 18/04 A3013 RMK AO2 SLP196 T01780039 402890133
cycle: 8

Station Type Date Time Source
KYKM TAF 2019/08/26 06:39 UTC NOAA

TAF KYKM 260535Z 2606/2706 30007KT P6SM SKC
FM261700 VRB06KT P6SM SKC
FM270200 25007KT P6SM SKC

Example: see airport list